createdAt,value
2023-05-19T00:01:14.531Z,5.50
2023-05-19T00:03:54.196Z,6.00
2023-05-19T00:06:27.039Z,6.00
2023-05-19T00:08:58.878Z,5.25
2023-05-19T00:11:27.081Z,6.00
2023-05-19T00:13:55.966Z,5.00
2023-05-19T00:16:23.718Z,5.00
2023-05-19T00:18:52.640Z,5.00
2023-05-19T00:21:19.441Z,7.00
2023-05-19T00:23:46.155Z,6.00
2023-05-19T00:26:14.357Z,5.00
2023-05-19T00:28:41.873Z,5.00
2023-05-19T00:31:09.295Z,5.00
2023-05-19T00:33:37.148Z,5.00
2023-05-19T00:36:04.193Z,4.00
2023-05-19T00:38:31.196Z,5.00
2023-05-19T00:40:59.943Z,5.00
2023-05-19T00:43:27.120Z,5.00
2023-05-19T00:45:53.978Z,6.00
2023-05-19T00:48:22.251Z,5.00
2023-05-19T00:50:49.602Z,5.00
2023-05-19T00:53:17.217Z,5.00
2023-05-19T00:55:45.522Z,5.00
2023-05-19T00:58:12.300Z,6.00
2023-05-19T01:00:39.117Z,5.00
2023-05-19T01:03:13.349Z,5.00
2023-05-19T01:05:46.940Z,4.33
2023-05-19T01:08:15.735Z,5.00
2023-05-19T01:10:44.380Z,5.00
2023-05-19T01:13:11.044Z,4.00
2023-05-19T01:15:56.111Z,5.00
2023-05-19T01:18:30.501Z,4.00
2023-05-19T01:21:18.689Z,5.00
2023-05-19T01:24:17.961Z,5.00
2023-05-19T01:27:13.148Z,5.00
2023-05-19T01:29:46.767Z,5.00
2023-05-19T01:32:13.522Z,5.00
2023-05-19T01:34:43.645Z,4.00
2023-05-19T01:37:10.475Z,5.00
2023-05-19T01:39:37.238Z,4.00
2023-05-19T01:42:05.523Z,4.00
2023-05-19T01:44:32.534Z,4.00
2023-05-19T01:46:59.948Z,6.00
2023-05-19T01:49:28.080Z,5.00
2023-05-19T01:51:55.680Z,4.50
2023-05-19T01:54:22.248Z,5.00
2023-05-19T01:57:14.508Z,5.00
2023-05-19T01:59:54.917Z,5.00
2023-05-19T02:02:34.630Z,5.00
2023-05-19T02:05:09.015Z,4.00
2023-05-19T02:07:46.299Z,5.00
2023-05-19T02:10:19.025Z,4.00
2023-05-19T02:12:45.589Z,5.00
2023-05-19T02:15:15.230Z,4.00
2023-05-19T02:17:50.221Z,5.50
2023-05-19T02:20:18.411Z,5.00
2023-05-19T02:22:45.024Z,4.00
2023-05-19T02:25:13.577Z,5.50
2023-05-19T02:27:41.906Z,5.00
2023-05-19T02:30:09.351Z,4.50
2023-05-19T02:32:36.965Z,5.00
2023-05-19T02:35:05.484Z,5.00
2023-05-19T02:37:32.219Z,5.00
2023-05-19T02:39:58.877Z,6.00
2023-05-19T02:42:26.728Z,4.00
2023-05-19T02:44:53.983Z,5.50
2023-05-19T02:47:20.574Z,5.25
2023-05-19T02:49:48.544Z,5.50
2023-05-19T02:52:15.359Z,0.00
2023-05-19T02:54:42.318Z,4.00
2023-05-19T02:57:10.606Z,5.00
2023-05-19T02:59:37.186Z,5.00
2023-05-19T03:02:04.314Z,4.00
2023-05-19T03:04:32.791Z,6.00
2023-05-19T03:06:59.382Z,5.00
2023-05-19T03:09:26.098Z,5.00
2023-05-19T03:11:54.327Z,5.00
2023-05-19T03:14:23.257Z,5.00
2023-05-19T03:16:50.303Z,5.00
2023-05-19T03:19:18.591Z,4.00
2023-05-19T03:21:45.723Z,4.50
2023-05-19T03:24:12.793Z,5.00
2023-05-19T03:26:41.523Z,5.00
2023-05-19T03:29:08.227Z,6.00
2023-05-19T03:31:36.046Z,5.25
2023-05-19T03:34:05.651Z,5.00
2023-05-19T03:36:32.389Z,5.00
2023-05-19T03:39:00.257Z,4.33
2023-05-19T03:41:28.379Z,5.00
2023-05-19T03:43:55.658Z,5.67
2023-05-19T03:46:22.429Z,5.00
2023-05-19T03:48:56.825Z,5.00
2023-05-19T03:51:43.845Z,4.00
2023-05-19T03:54:23.146Z,5.00
2023-05-19T03:56:51.451Z,5.00
2023-05-19T03:59:18.339Z,6.00
2023-05-19T04:01:47.101Z,5.00
2023-05-19T04:04:13.808Z,3.50
2023-05-19T04:06:40.460Z,5.67
2023-05-19T04:09:13.084Z,4.00
2023-05-19T04:11:40.305Z,4.00
2023-05-19T04:14:08.424Z,5.00
2023-05-19T04:16:35.454Z,5.67
2023-05-19T04:19:02.655Z,5.75
2023-05-19T04:21:30.581Z,5.00
2023-05-19T04:23:59.451Z,6.00
2023-05-19T04:26:30.148Z,5.00
2023-05-19T04:28:58.165Z,6.00
2023-05-19T04:31:25.540Z,5.00
2023-05-19T04:33:52.909Z,5.00
2023-05-19T04:36:21.281Z,4.00
2023-05-19T04:38:48.777Z,5.00
2023-05-19T04:41:16.908Z,4.00
2023-05-19T04:43:47.708Z,4.00
2023-05-19T04:46:15.038Z,5.50
2023-05-19T04:48:44.669Z,5.50
2023-05-19T04:51:13.545Z,5.00
2023-05-19T04:53:42.389Z,5.50
2023-05-19T04:56:12.974Z,6.00
2023-05-19T04:58:41.968Z,5.00
2023-05-19T05:01:09.035Z,5.00
2023-05-19T05:03:36.204Z,5.00
2023-05-19T05:06:04.685Z,5.00
2023-05-19T05:08:31.487Z,4.00
2023-05-19T05:10:58.926Z,5.00
2023-05-19T05:13:27.358Z,6.00
2023-05-19T05:15:55.654Z,7.33
2023-05-19T05:18:22.853Z,4.75
2023-05-19T05:20:51.136Z,6.00
2023-05-19T05:23:18.223Z,6.00
2023-05-19T05:25:46.418Z,6.00
2023-05-19T05:28:15.081Z,7.00
2023-05-19T05:30:43.174Z,6.00
2023-05-19T05:33:10.307Z,6.00
2023-05-19T05:35:39.625Z,8.00
2023-05-19T05:38:07.614Z,8.00
2023-05-19T05:40:34.633Z,7.00
2023-05-19T05:43:03.802Z,7.00
2023-05-19T05:45:32.915Z,6.33
2023-05-19T05:48:02.764Z,8.00
2023-05-19T05:50:30.547Z,8.00
2023-05-19T05:52:57.901Z,8.00
2023-05-19T05:55:26.791Z,6.50
2023-05-19T05:57:53.777Z,8.00
2023-05-19T06:00:22.083Z,8.00
2023-05-19T06:02:53.080Z,8.00
2023-05-19T06:05:20.364Z,8.00
2023-05-19T06:07:47.607Z,8.25
2023-05-19T06:10:20.198Z,8.00
2023-05-19T06:12:47.441Z,9.00
2023-05-19T06:15:15.354Z,8.00
2023-05-19T06:18:00.212Z,6.00
2023-05-19T06:20:27.541Z,8.00
2023-05-19T06:22:54.381Z,9.00
2023-05-19T06:25:24.047Z,8.00
2023-05-19T06:27:51.178Z,7.00
2023-05-19T06:30:21.251Z,9.33
2023-05-19T06:33:05.438Z,9.00
2023-05-19T06:35:32.333Z,8.00
2023-05-19T06:38:01.327Z,8.00
2023-05-19T06:40:27.991Z,8.00
2023-05-19T06:42:54.872Z,9.00
2023-05-19T06:45:31.997Z,9.00
2023-05-19T06:47:59.950Z,12.00
2023-05-19T06:50:27.383Z,9.00
2023-05-19T06:52:56.771Z,8.50
2023-05-19T06:55:23.682Z,8.00
2023-05-19T06:57:50.298Z,8.75
2023-05-19T07:00:20.639Z,7.00
2023-05-19T07:02:51.028Z,9.00
2023-05-19T07:05:19.822Z,8.00
2023-05-19T07:07:50.011Z,9.00
2023-05-19T07:10:21.659Z,10.00
2023-05-19T07:12:48.816Z,10.00
2023-05-19T07:15:18.756Z,11.25
2023-05-19T07:17:45.371Z,10.00
2023-05-19T07:20:12.764Z,8.00
2023-05-19T07:22:40.760Z,10.00
2023-05-19T07:25:07.975Z,9.00
2023-05-19T07:27:34.709Z,11.00
2023-05-19T07:30:03.469Z,10.00
2023-05-19T07:32:30.435Z,10.00
2023-05-19T07:34:57.109Z,9.00
2023-05-19T07:37:25.850Z,9.00
2023-05-19T07:39:52.519Z,10.00
2023-05-19T07:42:19.167Z,10.50
2023-05-19T07:44:47.038Z,10.00
2023-05-19T07:47:14.202Z,9.00
2023-05-19T07:49:40.974Z,8.00
2023-05-19T07:52:08.793Z,7.00
2023-05-19T07:54:35.487Z,6.00
2023-05-19T07:57:02.202Z,8.00
2023-05-19T07:59:30.154Z,7.00
2023-05-19T08:01:56.853Z,7.00
2023-05-19T08:04:23.675Z,8.00
2023-05-19T08:06:52.392Z,14.00
2023-05-19T08:09:19.543Z,13.00
2023-05-19T08:11:49.324Z,11.33
2023-05-19T08:14:18.826Z,11.50
2023-05-19T08:16:46.204Z,10.00
2023-05-19T08:19:12.771Z,10.00
2023-05-19T08:21:41.978Z,9.00
2023-05-19T08:24:08.825Z,8.00
2023-05-19T08:26:37.574Z,8.75
2023-05-19T08:29:05.970Z,10.00
2023-05-19T08:31:32.747Z,9.00
2023-05-19T08:33:59.813Z,8.00
2023-05-19T08:36:28.978Z,7.00
2023-05-19T08:38:56.049Z,8.00
2023-05-19T08:41:22.730Z,7.50
2023-05-19T08:43:50.604Z,8.00
2023-05-19T08:46:17.732Z,10.00
2023-05-19T08:48:44.720Z,13.25
2023-05-19T08:52:00.867Z,10.00
2023-05-19T08:54:33.074Z,10.00
2023-05-19T08:56:59.921Z,8.67
2023-05-19T08:59:28.112Z,5.00
2023-05-19T09:01:54.983Z,8.00
2023-05-19T09:04:21.697Z,7.00
2023-05-19T09:06:49.790Z,7.00
2023-05-19T09:09:16.720Z,6.00
2023-05-19T09:11:45.919Z,7.00
2023-05-19T09:14:14.184Z,7.00
2023-05-19T09:16:40.940Z,6.00
2023-05-19T09:19:13.091Z,6.00
2023-05-19T09:21:41.137Z,7.00
2023-05-19T09:24:08.643Z,6.00
2023-05-19T09:26:39.240Z,5.75
2023-05-19T09:29:16.884Z,7.00
2023-05-19T09:31:52.078Z,6.50
2023-05-19T09:34:21.062Z,6.00
2023-05-19T09:36:52.531Z,6.00
2023-05-19T09:39:24.863Z,7.00
2023-05-19T09:41:57.832Z,6.50
2023-05-19T09:44:30.016Z,6.00
2023-05-19T09:46:57.824Z,7.00
2023-05-19T09:49:29.102Z,7.00
2023-05-19T09:51:56.168Z,6.67
2023-05-19T09:54:26.927Z,6.50
2023-05-19T09:56:58.191Z,6.00
2023-05-19T09:59:28.009Z,6.00
2023-05-19T10:01:56.970Z,7.00
2023-05-19T10:04:29.223Z,8.00
2023-05-19T10:06:58.939Z,6.25
2023-05-19T10:09:28.070Z,7.00
2023-05-19T10:11:58.213Z,6.00
2023-05-19T10:14:27.300Z,8.50
2023-05-19T10:16:56.220Z,7.75
2023-05-19T10:19:25.960Z,6.00
2023-05-19T10:21:52.897Z,7.00
2023-05-19T10:24:20.647Z,8.00
2023-05-19T10:27:01.074Z,8.00
2023-05-19T10:29:31.472Z,7.00
2023-05-19T10:32:00.646Z,7.00
2023-05-19T10:34:56.452Z,7.00
2023-05-19T10:37:58.264Z,7.00
2023-05-19T10:40:28.229Z,5.00
2023-05-19T10:43:13.612Z,8.00
2023-05-19T10:45:52.839Z,7.00
2023-05-19T10:48:22.436Z,8.00
2023-05-19T10:50:52.988Z,8.00
2023-05-19T10:53:22.047Z,8.00
2023-05-19T10:55:53.074Z,6.50
2023-05-19T10:58:51.593Z,7.00
2023-05-19T11:01:20.296Z,7.00
2023-05-19T11:03:54.197Z,7.00
2023-05-19T11:06:35.565Z,5.00
2023-05-19T11:09:18.575Z,6.00
2023-05-19T11:11:54.084Z,6.00
2023-05-19T11:14:25.817Z,7.00
2023-05-19T11:16:56.122Z,7.00
2023-05-19T11:19:36.576Z,7.00
2023-05-19T11:22:11.960Z,8.00
2023-05-19T11:24:43.880Z,6.00
2023-05-19T11:27:27.619Z,7.00
2023-05-19T11:29:56.518Z,6.00
2023-05-19T11:32:26.119Z,7.00
2023-05-19T11:34:55.104Z,6.50
2023-05-19T11:37:22.875Z,6.00
2023-05-19T11:39:49.667Z,7.00
2023-05-19T11:42:17.705Z,6.00
2023-05-19T11:44:47.570Z,7.00
2023-05-19T11:47:16.900Z,6.33
2023-05-19T11:49:45.326Z,6.00
2023-05-19T11:52:12.432Z,7.00
2023-05-19T11:54:43.198Z,5.00
2023-05-19T11:57:13.438Z,5.25
2023-05-19T11:59:44.924Z,5.50
2023-05-19T12:02:24.456Z,6.25
2023-05-19T12:04:53.315Z,6.00
2023-05-19T12:07:23.453Z,6.00
2023-05-19T12:09:51.832Z,5.00
2023-05-19T12:12:19.712Z,6.00
2023-05-19T12:14:46.850Z,6.25
2023-05-19T12:17:19.281Z,6.00
2023-05-19T12:19:49.098Z,5.50
2023-05-19T12:22:17.108Z,6.00
2023-05-19T12:24:44.548Z,6.00
2023-05-19T12:27:14.535Z,5.00
2023-05-19T12:29:42.498Z,6.00
2023-05-19T12:32:09.196Z,5.00
2023-05-19T12:34:37.275Z,4.00
2023-05-19T12:37:05.489Z,5.00
2023-05-19T12:39:33.294Z,5.00
2023-05-19T12:42:10.157Z,5.00
2023-05-19T12:44:46.083Z,4.50
2023-05-19T12:47:15.247Z,4.00
2023-05-19T12:49:55.469Z,4.67
2023-05-19T12:52:23.763Z,4.00
2023-05-19T12:54:58.010Z,5.00
2023-05-19T12:57:27.513Z,5.00
2023-05-19T13:00:02.399Z,5.00
2023-05-19T13:02:30.441Z,5.00
2023-05-19T13:04:58.238Z,4.00
2023-05-19T13:07:25.031Z,5.00
2023-05-19T13:09:54.013Z,5.00
2023-05-19T13:12:20.795Z,6.00
2023-05-19T13:14:47.427Z,5.00
2023-05-19T13:17:15.551Z,4.00
2023-05-19T13:19:42.271Z,5.00
2023-05-19T13:22:09.234Z,5.00
2023-05-19T13:24:37.471Z,6.00
2023-05-19T13:27:05.214Z,6.00
2023-05-19T13:29:31.846Z,5.75
2023-05-19T13:32:01.318Z,5.00
2023-05-19T13:34:28.785Z,5.00
2023-05-19T13:36:57.175Z,4.00
2023-05-19T13:39:23.769Z,5.00
2023-05-19T13:41:50.422Z,4.00
2023-05-19T13:44:19.419Z,4.00
2023-05-19T13:46:47.011Z,4.00
2023-05-19T13:49:17.689Z,4.00
2023-05-19T13:51:44.330Z,4.00
2023-05-19T13:54:11.048Z,4.75
2023-05-19T13:56:39.108Z,5.00
2023-05-19T13:59:06.082Z,3.00
2023-05-19T14:01:32.851Z,2.00
2023-05-19T14:04:01.277Z,4.00
2023-05-19T14:06:28.136Z,4.00
2023-05-19T14:08:54.760Z,4.00
2023-05-19T14:11:22.778Z,3.00
2023-05-19T14:13:53.059Z,3.50
2023-05-19T14:16:22.358Z,4.50
2023-05-19T14:18:49.424Z,6.00
2023-05-19T14:21:16.078Z,6.00
2023-05-19T14:23:44.070Z,5.00
2023-05-19T14:26:10.655Z,5.00
2023-05-19T14:28:37.282Z,5.00
2023-05-19T14:31:06.364Z,5.00
2023-05-19T14:33:35.581Z,6.00
2023-05-19T14:36:04.786Z,5.00
2023-05-19T14:38:31.461Z,6.00
2023-05-19T14:40:58.204Z,6.00
2023-05-19T14:43:26.154Z,5.00
2023-05-19T14:45:52.839Z,5.00
2023-05-19T14:48:19.563Z,5.00
2023-05-19T14:50:50.403Z,4.00
2023-05-19T14:53:17.357Z,5.00
2023-05-19T14:55:49.339Z,4.00
2023-05-19T14:58:28.446Z,5.00
2023-05-19T15:00:58.653Z,5.00
2023-05-19T15:03:25.401Z,5.00
2023-05-19T15:05:52.253Z,4.00
2023-05-19T15:08:20.614Z,4.50
2023-05-19T15:10:50.818Z,5.00
2023-05-19T15:13:18.753Z,4.00
2023-05-19T15:15:45.466Z,4.00
2023-05-19T15:18:12.481Z,4.00
2023-05-19T15:20:40.548Z,3.00
2023-05-19T15:23:07.590Z,3.50
2023-05-19T15:25:34.142Z,4.00
2023-05-19T15:28:01.953Z,4.00
2023-05-19T15:30:28.733Z,4.00
2023-05-19T15:32:55.400Z,4.00
2023-05-19T15:35:23.385Z,4.50
2023-05-19T15:37:50.276Z,4.00
2023-05-19T15:40:17.526Z,5.25
2023-05-19T15:42:45.829Z,4.00
2023-05-19T15:45:12.384Z,5.00
2023-05-19T15:47:39.027Z,4.00
2023-05-19T15:50:07.893Z,3.50
2023-05-19T15:52:34.905Z,5.50
2023-05-19T15:55:01.787Z,5.00
2023-05-19T15:57:29.661Z,4.00
2023-05-19T15:59:56.513Z,5.00
2023-05-19T16:02:23.573Z,5.00
2023-05-19T16:04:51.784Z,5.00
2023-05-19T16:07:18.577Z,5.00
2023-05-19T16:09:45.427Z,5.00
2023-05-19T16:12:13.244Z,5.00
2023-05-19T16:14:40.513Z,5.00
2023-05-19T16:17:10.862Z,4.25
2023-05-19T16:19:38.710Z,4.00
2023-05-19T16:22:05.391Z,3.50
2023-05-19T16:24:31.944Z,4.00
2023-05-19T16:27:00.092Z,4.33
2023-05-19T16:29:26.879Z,4.00
2023-05-19T16:31:53.598Z,4.00
2023-05-19T16:34:21.867Z,4.00
2023-05-19T16:36:48.842Z,3.00
2023-05-19T16:39:16.577Z,3.00
2023-05-19T16:41:44.537Z,3.00
2023-05-19T16:44:13.742Z,3.00
2023-05-19T16:46:40.307Z,2.00
2023-05-19T16:49:08.612Z,3.00
2023-05-19T16:51:35.299Z,3.00
2023-05-19T16:54:02.181Z,2.50
2023-05-19T16:56:30.036Z,3.00
2023-05-19T16:58:56.636Z,3.00
2023-05-19T17:01:23.229Z,3.00
2023-05-19T17:03:51.229Z,5.00
2023-05-19T17:06:17.954Z,3.00
2023-05-19T17:08:44.723Z,3.50
2023-05-19T17:11:12.898Z,3.00
2023-05-19T17:13:41.593Z,3.00
2023-05-19T17:16:08.454Z,3.00
2023-05-19T17:18:36.759Z,2.50
2023-05-19T17:21:05.072Z,3.00
2023-05-19T17:23:32.250Z,3.75
2023-05-19T17:26:01.336Z,2.00
2023-05-19T17:28:28.363Z,3.00
2023-05-19T17:30:54.993Z,3.00
2023-05-19T17:33:23.025Z,3.00
2023-05-19T17:35:49.967Z,3.50
2023-05-19T17:38:16.755Z,3.00
2023-05-19T17:40:44.844Z,4.00
2023-05-19T17:43:11.410Z,2.50
2023-05-19T17:45:38.084Z,3.00
2023-05-19T17:48:06.203Z,3.00
2023-05-19T17:50:33.091Z,3.00
2023-05-19T17:53:00.239Z,2.00
2023-05-19T17:55:30.337Z,3.00
2023-05-19T17:57:57.302Z,3.00
2023-05-19T18:00:24.600Z,3.00
2023-05-19T18:02:53.108Z,3.00
2023-05-19T18:05:20.920Z,3.00
2023-05-19T18:07:47.727Z,3.00
2023-05-19T18:10:16.350Z,3.00
2023-05-19T18:12:43.282Z,3.00
2023-05-19T18:15:10.815Z,2.50
2023-05-19T18:17:38.833Z,3.00
2023-05-19T18:20:06.162Z,2.00
2023-05-19T18:22:33.111Z,2.75
2023-05-19T18:25:01.327Z,2.00
2023-05-19T18:27:28.387Z,3.00
2023-05-19T18:29:55.070Z,3.00
2023-05-19T18:32:23.008Z,3.00
2023-05-19T18:34:49.685Z,2.00
2023-05-19T18:37:16.889Z,3.50
2023-05-19T18:39:44.877Z,3.00
2023-05-19T18:42:11.642Z,3.00
2023-05-19T18:44:38.215Z,3.25
2023-05-19T18:47:06.183Z,3.00
2023-05-19T18:49:32.800Z,3.00
2023-05-19T18:51:59.472Z,1.00
2023-05-19T18:54:27.898Z,3.00
2023-05-19T18:56:54.758Z,3.00
2023-05-19T18:59:23.318Z,3.00
2023-05-19T19:01:54.313Z,2.00
2023-05-19T19:04:21.528Z,3.00
2023-05-19T19:06:51.878Z,3.00
2023-05-19T19:09:18.663Z,2.00
2023-05-19T19:11:45.466Z,3.00
2023-05-19T19:14:13.676Z,3.00
2023-05-19T19:16:40.636Z,2.00
2023-05-19T19:19:07.408Z,3.50
2023-05-19T19:21:35.781Z,3.00
2023-05-19T19:24:02.692Z,3.00
2023-05-19T19:26:29.283Z,3.00
2023-05-19T19:28:57.670Z,3.00
2023-05-19T19:31:28.232Z,3.00
2023-05-19T19:33:58.300Z,2.50
2023-05-19T19:36:25.682Z,2.00
2023-05-19T19:38:52.350Z,3.00
2023-05-19T19:41:20.637Z,3.00
2023-05-19T19:43:47.272Z,3.00
2023-05-19T19:46:13.949Z,3.00
2023-05-19T19:48:42.071Z,3.00
2023-05-19T19:51:08.657Z,3.00
2023-05-19T19:53:35.306Z,3.75
2023-05-19T19:56:04.446Z,3.00
2023-05-19T19:58:31.211Z,2.00
2023-05-19T20:01:07.658Z,3.00
2023-05-19T20:03:36.001Z,2.00
2023-05-19T20:06:02.743Z,2.00
2023-05-19T20:08:29.524Z,2.75
2023-05-19T20:10:57.540Z,3.00
2023-05-19T20:13:24.257Z,3.00
2023-05-19T20:15:50.974Z,3.00
2023-05-19T20:18:19.467Z,2.00
2023-05-19T20:20:46.231Z,2.00
2023-05-19T20:23:12.821Z,3.00
2023-05-19T20:25:50.163Z,3.00
2023-05-19T20:28:27.217Z,2.00
2023-05-19T20:30:53.830Z,3.00
2023-05-19T20:33:20.744Z,3.50
2023-05-19T20:35:48.676Z,3.00
2023-05-19T20:38:15.437Z,3.00
2023-05-19T20:40:42.222Z,3.00
2023-05-19T20:43:10.092Z,3.00
2023-05-19T20:45:36.964Z,2.00
2023-05-19T20:48:04.254Z,3.00
2023-05-19T20:50:32.506Z,3.00
2023-05-19T20:52:59.853Z,4.00
2023-05-19T20:55:26.520Z,3.00
2023-05-19T20:57:54.465Z,3.00
2023-05-19T21:00:21.261Z,4.00
2023-05-19T21:02:48.489Z,3.00
2023-05-19T21:05:16.527Z,4.00
2023-05-19T21:07:43.362Z,4.00
2023-05-19T21:10:13.177Z,3.00
2023-05-19T21:12:41.429Z,3.00
2023-05-19T21:15:09.238Z,2.00
2023-05-19T21:17:36.029Z,3.00
2023-05-19T21:20:04.763Z,3.00
2023-05-19T21:22:31.849Z,3.00
2023-05-19T21:24:58.863Z,3.00
2023-05-19T21:27:26.717Z,4.00
2023-05-19T21:29:53.731Z,3.00
2023-05-19T21:32:20.929Z,3.00
2023-05-19T21:34:48.901Z,4.00
2023-05-19T21:37:17.050Z,3.00
2023-05-19T21:39:43.911Z,2.75
2023-05-19T21:42:12.192Z,3.00
2023-05-19T21:44:38.867Z,4.00
2023-05-19T21:47:06.228Z,4.00
2023-05-19T21:49:34.583Z,3.00
2023-05-19T21:52:01.448Z,3.00
2023-05-19T21:54:28.092Z,4.00
2023-05-19T21:56:56.142Z,3.00
2023-05-19T21:59:24.074Z,3.50
2023-05-19T22:01:50.870Z,2.75
2023-05-19T22:04:20.460Z,4.00
2023-05-19T22:06:47.378Z,2.50
2023-05-19T22:09:14.033Z,3.25
2023-05-19T22:11:42.223Z,2.50
2023-05-19T22:14:08.878Z,3.00
2023-05-19T22:16:35.717Z,3.75
2023-05-19T22:19:03.998Z,3.00
2023-05-19T22:21:31.337Z,3.50
2023-05-19T22:23:58.048Z,2.00
2023-05-19T22:26:26.646Z,2.50
2023-05-19T22:28:54.777Z,3.00
2023-05-19T22:31:21.721Z,4.00
2023-05-19T22:33:49.654Z,4.00
2023-05-19T22:36:16.507Z,4.00
2023-05-19T22:38:43.108Z,4.00
2023-05-19T22:41:11.066Z,4.00
2023-05-19T22:43:37.834Z,3.00
2023-05-19T22:46:04.792Z,4.00
2023-05-19T22:48:32.683Z,2.00
2023-05-19T22:50:59.255Z,3.00
2023-05-19T22:53:25.882Z,4.00
2023-05-19T22:55:53.982Z,3.00
2023-05-19T22:58:20.505Z,4.00
2023-05-19T23:00:47.292Z,4.00
2023-05-19T23:03:15.960Z,4.00
2023-05-19T23:05:42.638Z,3.00
2023-05-19T23:08:09.371Z,3.75
2023-05-19T23:10:37.379Z,4.00
2023-05-19T23:13:04.300Z,4.00
2023-05-19T23:15:31.272Z,4.00
2023-05-19T23:18:00.680Z,3.00
2023-05-19T23:20:27.748Z,4.00
2023-05-19T23:22:54.425Z,4.00
2023-05-19T23:25:22.432Z,2.00
2023-05-19T23:27:49.759Z,3.00
2023-05-19T23:30:16.738Z,3.75
2023-05-19T23:32:44.663Z,4.00
2023-05-19T23:35:12.696Z,2.50
2023-05-19T23:37:39.612Z,3.00
2023-05-19T23:40:08.343Z,2.00
2023-05-19T23:42:35.466Z,3.67
2023-05-19T23:45:02.392Z,3.25
2023-05-19T23:47:30.365Z,4.00
2023-05-19T23:49:56.889Z,4.00
2023-05-19T23:52:23.548Z,3.67
2023-05-19T23:54:51.439Z,4.00
2023-05-19T23:57:18.412Z,4.00
2023-05-19T23:59:45.244Z,4.75
